Time;durP1;ratioP1;P1;durP2;ratioP2;P2;SDS_P1;SDS_P2;PMS_P1;PMS_P2;Temp;Humidity;BMP_temperature;BMP_pressure;BME280_temperature;BME280_humidity;BME280_pressure;Samples;Min_cycle;Max_cycle;Signal;HPM_P1;HPM_P2
2021/08/25 00:03:16;;;;;;;0.10;0.10;;;;;;;10.76;91.42;102766.66;10496718;28;20398;-62
2021/08/25 00:08:17;;;;;;;0.03;0.03;;;;;;;10.71;93.04;102772.34;10497237;28;20013;-61
2021/08/25 00:13:18;;;;;;;0.00;0.00;;;;;;;10.68;93.29;102769.88;10503321;28;20016;-63
2021/08/25 00:18:18;;;;;;;0.10;0.10;;;;;;;10.67;93.38;102767.31;10496881;28;20028;-62
2021/08/25 00:23:19;;;;;;;0.00;0.00;;;;;;;10.65;93.47;102762.13;10504575;28;20023;-62
2021/08/25 00:28:21;;;;;;;0.03;0.03;;;;;;;10.56;91.18;102766.31;10536443;28;20020;-62
2021/08/25 00:33:21;;;;;;;0.10;0.10;;;;;;;10.10;90.22;102750.94;10538003;28;20111;-63
2021/08/25 00:38:21;;;;;;;0.10;0.10;;;;;;;9.90;92.01;102744.34;10514049;28;20027;-62
2021/08/25 00:43:22;;;;;;;0.00;0.00;;;;;;;9.82;92.56;102744.03;10495810;28;20281;-62
2021/08/25 00:48:22;;;;;;;0.00;0.00;;;;;;;9.72;92.60;102749.16;10495544;28;20016;-62
2021/08/25 00:53:23;;;;;;;0.00;0.00;;;;;;;9.66;93.51;102738.09;10495002;28;20449;-62
2021/08/25 00:58:25;;;;;;;0.10;0.10;;;;;;;9.65;94.25;102731.91;10495339;28;20395;-62
2021/08/25 01:03:49;;;;;;;0.00;0.00;;;;;;;9.58;93.83;102724.47;10507265;28;20052;-62
2021/08/25 01:08:50;;;;;;;0.10;0.10;;;;;;;9.48;92.69;102718.91;10532964;28;20396;-62
2021/08/25 01:13:51;;;;;;;0.10;0.10;;;;;;;9.46;92.61;102720.84;10498861;28;20024;-62
2021/08/25 01:18:52;;;;;;;0.08;0.08;;;;;;;9.44;92.49;102707.63;10496676;28;20020;-62
2021/08/25 01:23:53;;;;;;;0.08;0.08;;;;;;;9.44;93.49;102707.63;10493746;28;20055;-62
2021/08/25 01:28:56;;;;;;;0.00;0.00;;;;;;;9.42;93.03;102698.06;10521563;28;20082;-61
2021/08/25 01:34:07;;;;;;;0.00;0.00;;;;;;;9.31;91.61;102696.16;10494744;28;20070;-62
2021/08/25 01:39:07;;;;;;;0.10;0.10;;;;;;;9.17;93.10;102691.78;10508302;28;20518;-62
2021/08/25 01:44:07;;;;;;;0.00;0.00;;;;;;;9.11;93.19;102683.38;10493022;28;20048;-61
2021/08/25 01:49:13;;;;;;;0.10;0.10;;;;;;;9.07;93.15;102672.06;10494700;28;20266;-62
2021/08/25 01:54:13;;;;;;;0.10;0.10;;;;;;;9.13;93.69;102670.81;10498275;28;20047;-62
2021/08/25 01:59:13;;;;;;;0.10;0.10;;;;;;;9.22;94.54;102657.75;10492055;28;20487;-62
2021/08/25 02:04:14;;;;;;;0.00;0.00;;;;;;;9.20;93.13;102651.69;10495837;28;20111;-62
2021/08/25 02:09:14;;;;;;;0.10;0.10;;;;;;;9.15;92.84;102648.47;10494523;28;20024;-62
2021/08/25 02:14:15;;;;;;;0.00;0.00;;;;;;;9.10;94.64;102645.28;10502927;28;20026;-61
2021/08/25 02:19:15;;;;;;;0.10;0.10;;;;;;;9.14;94.33;102649.44;10533815;28;20641;-62
2021/08/25 02:24:16;;;;;;;0.00;0.00;;;;;;;9.16;95.84;102631.59;10533414;28;20020;-62
2021/08/25 02:29:16;;;;;;;0.00;0.00;;;;;;;9.34;97.00;102626.81;10506174;28;20032;-62
2021/08/25 02:34:16;;;;;;;0.10;0.10;;;;;;;9.53;97.65;102623.69;10491804;28;20446;-61
2021/08/25 02:39:17;;;;;;;0.00;0.00;;;;;;;9.78;98.43;102622.81;10491414;28;20073;-62
2021/08/25 02:44:17;;;;;;;0.00;0.00;;;;;;;9.82;97.86;102613.63;10491178;28;20024;-61
2021/08/25 02:49:17;;;;;;;0.00;0.00;;;;;;;9.70;96.66;102606.53;10494281;28;20111;-62
2021/08/25 02:54:17;;;;;;;0.10;0.10;;;;;;;9.55;96.29;102594.31;10530525;28;20024;-62
2021/08/25 02:59:18;;;;;;;0.10;0.10;;;;;;;9.61;96.68;102592.06;10502515;28;20020;-62
2021/08/25 03:04:18;;;;;;;0.10;0.10;;;;;;;9.71;98.45;102593.09;10498417;28;20108;-62
2021/08/25 03:09:18;;;;;;;0.00;0.00;;;;;;;10.04;98.79;102593.44;10489544;28;20114;-62
2021/08/25 03:14:19;;;;;;;0.00;0.00;;;;;;;10.39;99.95;102585.53;10501324;28;20115;-62
2021/08/25 03:19:19;;;;;;;0.10;0.10;;;;;;;10.62;100.00;102592.63;10498643;28;20062;-62
2021/08/25 03:24:20;;;;;;;0.00;0.00;;;;;;;10.96;100.00;102582.03;10498431;28;20044;-61
2021/08/25 03:29:20;;;;;;;0.10;0.10;;;;;;;11.19;100.00;102579.41;10507442;28;20020;-62
2021/08/25 03:34:20;;;;;;;0.10;0.10;;;;;;;11.39;100.00;102567.16;10510722;28;20102;-62
2021/08/25 03:39:21;;;;;;;0.10;0.10;;;;;;;11.60;100.00;102565.44;10498626;28;20020;-62
2021/08/25 03:44:21;;;;;;;0.10;0.10;;;;;;;11.78;100.00;102558.63;10497966;28;20257;-62
2021/08/25 03:49:21;;;;;;;0.10;0.10;;;;;;;11.93;100.00;102547.72;10479810;28;20047;-61
2021/08/25 03:54:22;;;;;;;0.10;0.10;;;;;;;11.99;100.00;102547.19;10497827;28;20048;-62
2021/08/25 03:59:22;;;;;;;0.10;0.10;;;;;;;12.03;100.00;102545.97;10497006;28;20100;-61
2021/08/25 04:04:23;;;;;;;0.10;0.10;;;;;;;12.04;100.00;102544.97;10510681;28;20103;-62
2021/08/25 04:09:23;;;;;;;0.10;0.10;;;;;;;12.07;100.00;102538.53;10503086;28;20395;-62
2021/08/25 04:14:23;;;;;;;0.10;0.10;;;;;;;12.09;100.00;102540.09;10496313;28;20255;-62
2021/08/25 04:19:24;;;;;;;0.00;0.00;;;;;;;12.11;100.00;102526.63;10496941;28;20039;-62
2021/08/25 04:24:24;;;;;;;0.00;0.00;;;;;;;12.16;100.00;102516.44;10496219;28;20027;-60
2021/08/25 04:29:24;;;;;;;0.00;0.00;;;;;;;12.24;100.00;102520.13;10496803;28;20083;-60
2021/08/25 04:34:25;;;;;;;0.10;0.10;;;;;;;12.34;100.00;102511.34;10508606;28;20024;-60
2021/08/25 04:39:25;;;;;;;0.10;0.10;;;;;;;12.45;100.00;102496.09;10495964;28;20320;-62
2021/08/25 04:44:25;;;;;;;0.10;0.10;;;;;;;12.86;100.00;102486.34;10510163;28;20024;-60
2021/08/25 04:49:26;;;;;;;0.10;0.10;;;;;;;13.39;100.00;102477.25;10495349;28;20024;-60
2021/08/25 04:54:26;;;;;;;0.10;0.10;;;;;;;13.58;99.42;102474.63;10494465;28;20455;-60
2021/08/25 04:59:26;;;;;;;0.10;0.10;;;;;;;13.58;97.82;102465.72;10485812;28;20027;-61
2021/08/25 05:04:26;;;;;;;0.10;0.10;;;;;;;13.61;97.43;102464.59;10510175;28;20080;-61
2021/08/25 05:09:27;;;;;;;0.10;0.10;;;;;;;13.63;96.67;102457.28;10498613;28;20024;-61
2021/08/25 05:14:27;;;;;;;0.10;0.10;;;;;;;14.09;97.58;102455.75;10496500;28;20395;-60
2021/08/25 05:19:27;;;;;;;0.10;0.10;;;;;;;16.08;92.96;102441.75;10528771;22;20081;-61
2021/08/25 05:24:28;;;;;;;0.03;0.03;;;;;;;17.95;85.28;102445.41;10535436;28;20345;-60
2021/08/25 05:29:28;;;;;;;0.10;0.10;;;;;;;19.41;79.45;102444.16;10535980;28;20026;-62
2021/08/25 05:34:29;;;;;;;0.00;0.00;;;;;;;19.33;77.54;102441.50;10534809;28;20024;-62
2021/08/25 05:39:29;;;;;;;0.00;0.00;;;;;;;20.62;74.48;102437.06;10535234;28;20124;-62
2021/08/25 05:44:29;;;;;;;0.07;0.07;;;;;;;21.78;68.25;102426.38;10534321;28;20024;-62
2021/08/25 05:49:30;;;;;;;0.00;0.00;;;;;;;22.77;66.12;102420.81;10534603;28;20031;-63
2021/08/25 05:54:30;;;;;;;0.00;0.00;;;;;;;21.53;66.17;102417.81;10534593;28;20119;-63
2021/08/25 05:59:30;;;;;;;0.10;0.10;;;;;;;21.85;66.55;102405.59;10534436;28;20057;-63
2021/08/25 06:04:31;;;;;;;0.00;0.00;;;;;;;23.23;62.12;102399.28;10533645;28;20031;-63
2021/08/25 06:09:31;;;;;;;0.10;0.10;;;;;;;23.96;59.27;102390.38;10533444;28;20080;-62
2021/08/25 06:14:31;;;;;;;0.00;0.00;;;;;;;24.78;56.02;102386.25;10533268;28;20024;-62
2021/08/25 06:19:32;;;;;;;0.00;0.00;;;;;;;25.20;53.53;102383.94;10533477;28;20023;-64
2021/08/25 06:24:32;;;;;;;0.00;0.00;;;;;;;25.47;53.51;102368.22;10532939;28;20034;-64
2021/08/25 06:29:32;;;;;;;0.10;0.10;;;;;;;25.84;51.38;102371.13;10532958;28;20023;-64
2021/08/25 06:34:33;;;;;;;0.10;0.10;;;;;;;25.55;51.82;102369.84;10532573;28;20119;-64
2021/08/25 06:39:34;;;;;;;0.10;0.10;;;;;;;24.81;53.93;102364.00;10532881;28;20028;-64
2021/08/25 06:44:34;;;;;;;0.10;0.10;;;;;;;24.16;54.31;102357.69;10532701;28;20031;-64
2021/08/25 06:49:34;;;;;;;0.10;0.10;;;;;;;24.44;55.43;102351.16;10532502;28;20024;-63
2021/08/25 06:54:35;;;;;;;0.08;0.08;;;;;;;25.03;54.42;102352.78;10531552;28;20161;-64
2021/08/25 06:59:35;;;;;;;0.10;0.10;;;;;;;26.01;50.67;102330.44;10532527;28;20020;-64
2021/08/25 07:04:35;;;;;;;0.10;0.10;;;;;;;26.92;49.10;102325.13;10532657;28;20047;-64
2021/08/25 07:09:35;;;;;;;0.10;0.10;;;;;;;27.33;48.42;102327.06;10532320;28;20026;-64
2021/08/25 07:14:36;;;;;;;0.00;0.00;;;;;;;27.66;48.23;102321.00;10531528;28;20496;-64
2021/08/25 07:19:36;;;;;;;0.10;0.10;;;;;;;27.98;45.69;102318.78;10513947;28;20482;-64
2021/08/25 07:24:37;;;;;;;0.10;0.10;;;;;;;27.96;44.84;102299.03;10532082;28;20492;-64
2021/08/25 07:29:37;;;;;;;0.10;0.10;;;;;;;27.84;47.94;102283.66;10530070;28;20486;-63
2021/08/25 07:34:37;;;;;;;0.10;0.10;;;;;;;27.22;48.04;102281.38;10489781;28;20266;-64
2021/08/25 07:39:38;;;;;;;0.10;0.10;;;;;;;26.51;49.64;102275.66;10489718;28;20083;-63
2021/08/25 07:44:38;;;;;;;0.10;0.10;;;;;;;24.92;52.14;102271.69;10489451;28;20028;-61
2021/08/25 07:49:38;;;;;;;0.10;0.10;;;;;;;25.15;52.91;102274.69;10489553;28;20139;-63
2021/08/25 07:54:39;;;;;;;0.10;0.10;;;;;;;25.43;51.18;102273.44;10489066;28;20123;-63
2021/08/25 07:59:39;;;;;;;0.10;0.10;;;;;;;25.02;50.95;102275.63;10489292;28;20024;-63
2021/08/25 08:04:40;;;;;;;0.00;0.00;;;;;;;23.92;54.21;102272.97;10489459;28;20034;-63
2021/08/25 08:09:40;;;;;;;0.10;0.10;;;;;;;22.96;55.77;102259.78;10500694;28;20016;-62
2021/08/25 08:14:41;;;;;;;0.00;0.00;;;;;;;22.12;59.65;102268.22;10534779;28;20055;-63
2021/08/25 08:19:42;;;;;;;0.10;0.10;;;;;;;21.71;59.93;102260.88;10537854;28;20031;-63
2021/08/25 08:24:42;;;;;;;0.10;0.10;;;;;;;21.45;60.22;102266.94;10530440;28;20383;-64
2021/08/25 08:29:43;;;;;;;0.00;0.00;;;;;;;21.09;62.13;102258.88;10495769;28;20035;-63
2021/08/25 08:34:43;;;;;;;0.03;0.03;;;;;;;20.52;63.59;102257.84;10495782;28;20447;-62
2021/08/25 08:39:43;;;;;;;0.10;0.10;;;;;;;19.88;66.98;102288.22;10495294;28;20028;-63
2021/08/25 08:44:44;;;;;;;0.00;0.00;;;;;;;19.31;69.04;102283.31;10495077;28;20036;-62
2021/08/25 08:49:45;;;;;;;0.10;0.10;;;;;;;18.86;70.82;102287.69;10494996;28;20059;-62
2021/08/25 08:54:46;;;;;;;0.00;0.00;;;;;;;18.73;70.52;102281.03;10495216;28;20054;-63
2021/08/25 08:59:47;;;;;;;0.00;0.00;;;;;;;19.02;71.06;102246.22;10476360;28;20119;-62
2021/08/25 09:04:47;;;;;;;0.08;0.08;;;;;;;19.70;68.35;102231.81;10494225;28;20099;-62
2021/08/25 09:09:56;;;;;;;0.00;0.00;;;;;;;20.31;67.54;102213.47;10493865;28;20103;-62
2021/08/25 09:14:56;;;;;;;0.03;0.03;;;;;;;20.44;65.90;102211.94;10475019;28;20029;-63
2021/08/25 09:20:08;;;;;;;0.05;0.05;;;;;;;20.09;66.51;102219.84;10492906;28;20093;-62
2021/08/25 09:25:08;;;;;;;0.10;0.10;;;;;;;21.15;68.05;102220.19;10475165;28;20016;-64
2021/08/25 09:30:09;;;;;;;0.10;0.10;;;;;;;21.16;64.20;102213.75;10505714;28;20115;-64
2021/08/25 09:35:09;;;;;;;0.00;0.00;;;;;;;20.69;63.93;102202.47;10535025;28;20679;-63
2021/08/25 09:40:14;;;;;;;0.10;0.10;;;;;;;20.79;61.55;102189.44;10534446;28;20084;-63
2021/08/25 09:45:18;;;;;;;0.00;0.00;;;;;;;21.63;58.96;102177.81;10534061;28;20047;-63
2021/08/25 09:50:21;;;;;;;0.00;0.00;;;;;;;21.75;57.08;102160.97;10515797;28;20451;-61
2021/08/25 09:55:30;;;;;;;0.00;0.00;;;;;;;21.89;55.98;102149.16;10533730;28;20031;-63
2021/08/25 10:00:30;;;;;;;0.10;0.10;;;;;;;21.46;56.74;102152.06;10534151;28;20076;-64
2021/08/25 10:05:30;;;;;;;0.10;0.10;;;;;;;21.72;56.56;102134.28;10533863;28;20170;-64
2021/08/25 10:10:31;;;;;;;0.00;0.00;;;;;;;21.75;56.25;102140.13;10533791;28;20036;-64
2021/08/25 10:15:31;;;;;;;0.00;0.00;;;;;;;21.46;57.67;102133.91;10532831;28;20035;-63
2021/08/25 10:20:35;;;;;;;0.10;0.10;;;;;;;22.17;56.85;102115.66;10532552;28;20040;-64
2021/08/25 10:26:08;;;;;;;0.10;0.10;;;;;;;22.02;57.12;102113.97;10532573;28;20439;-64
2021/08/25 10:31:08;;;;;;;0.00;0.00;;;;;;;21.51;57.44;102099.97;10531750;28;20024;-64
2021/08/25 10:36:21;;;;;;;0.00;0.00;;;;;;;21.18;59.69;102095.16;10532450;28;20074;-64
2021/08/25 10:41:22;;;;;;;0.00;0.00;;;;;;;20.83;59.85;102096.97;10533192;28;20115;-64
2021/08/25 10:46:46;;;;;;;0.00;0.00;;;;;;;20.13;61.62;102081.34;10531762;28;20437;-63
2021/08/25 10:51:47;;;;;;;0.00;0.00;;;;;;;19.63;64.16;102074.06;10532328;28;20038;-63
2021/08/25 10:56:47;;;;;;;0.00;0.00;;;;;;;19.20;65.12;102066.66;10531738;28;20042;-63
2021/08/25 11:01:49;;;;;;;0.00;0.00;;;;;;;18.75;66.62;102059.50;10532068;28;20027;-63
2021/08/25 11:06:52;;;;;;;0.00;0.00;;;;;;;18.39;68.13;102051.22;10525027;28;20444;-62
2021/08/25 11:11:53;;;;;;;0.10;0.10;;;;;;;18.14;69.79;102064.88;10524976;28;20024;-64
2021/08/25 11:16:57;;;;;;;0.03;0.03;;;;;;;17.90;72.16;102052.38;10507178;28;20032;-62
2021/08/25 11:21:59;;;;;;;0.10;0.10;;;;;;;17.79;73.76;102034.75;10540724;22;20032;-62
2021/08/25 11:26:59;;;;;;;0.00;0.00;;;;;;;17.83;73.64;102028.00;10465594;28;20017;-63
2021/08/25 11:32:02;;;;;;;0.10;0.10;;;;;;;17.91;72.92;102019.00;10448670;28;20017;-63
2021/08/25 11:37:04;;;;;;;0.10;0.10;;;;;;;18.14;73.03;101999.31;10486596;28;20278;-62
2021/08/25 11:42:04;;;;;;;0.10;0.10;;;;;;;18.60;71.12;101991.16;10487691;28;20050;-63
2021/08/25 11:47:13;;;;;;;0.00;0.00;;;;;;;18.92;70.56;101982.75;10477588;28;20212;-63
2021/08/25 11:52:14;;;;;;;0.00;0.00;;;;;;;19.19;70.02;101988.50;10475241;28;20491;-61
2021/08/25 11:57:15;;;;;;;0.10;0.10;;;;;;;18.91;70.69;101981.06;10458203;28;20503;-63
2021/08/25 12:02:16;;;;;;;0.00;0.00;;;;;;;18.97;73.03;101966.81;10455517;28;20025;-63
2021/08/25 12:07:17;;;;;;;0.00;0.00;;;;;;;19.13;72.15;101959.53;10455491;28;20535;-62
2021/08/25 12:12:18;;;;;;;0.00;0.00;;;;;;;19.19;71.80;101958.78;10437073;28;20025;-63
2021/08/25 12:17:20;;;;;;;0.05;0.05;;;;;;;19.00;72.46;101960.22;10455184;28;20384;-63
2021/08/25 12:22:22;;;;;;;0.10;0.10;;;;;;;18.75;72.96;101949.69;10474167;28;20031;-62
2021/08/25 12:27:23;;;;;;;0.10;0.10;;;;;;;18.80;75.02;101942.91;10472150;28;20505;-63
2021/08/25 12:32:23;;;;;;;0.00;0.00;;;;;;;18.87;75.78;101939.25;10468998;28;20344;-63
2021/08/25 12:38:03;;;;;;;0.10;0.10;;;;;;;18.69;77.63;101936.91;10484601;28;20116;-62
2021/08/25 12:43:03;;;;;;;0.00;0.00;;;;;;;18.33;78.82;101920.63;10321153;28;20031;-63
2021/08/25 12:48:05;;;;;;;0.10;0.10;;;;;;;18.08;81.12;101918.13;10421728;28;20021;-63
2021/08/25 12:53:06;;;;;;;0.00;0.00;;;;;;;18.02;81.90;101900.00;10485891;28;20069;-63
2021/08/25 12:58:06;;;;;;;0.00;0.00;;;;;;;18.15;80.58;101887.72;10453650;28;20059;-63
2021/08/25 13:03:07;;;;;;;0.00;0.00;;;;;;;18.20;80.34;101882.63;10467937;28;20103;-63
2021/08/25 13:08:07;;;;;;;0.00;0.00;;;;;;;17.97;80.83;101875.44;10453139;28;20013;-63
2021/08/25 13:13:07;;;;;;;0.03;0.03;;;;;;;17.77;81.16;101860.75;10467369;28;20025;-62
2021/08/25 13:18:08;;;;;;;0.10;0.10;;;;;;;17.67;81.47;101860.19;10460598;28;20028;-62
2021/08/25 13:23:08;;;;;;;0.10;0.10;;;;;;;17.60;82.00;101847.44;10459944;28;20040;-61
2021/08/25 13:28:08;;;;;;;0.08;0.08;;;;;;;17.50;83.52;101844.13;10458656;28;20019;-62
2021/08/25 13:33:08;;;;;;;0.10;0.10;;;;;;;17.44;84.50;101839.47;10463464;28;20021;-62
2021/08/25 13:38:09;;;;;;;0.10;0.10;;;;;;;17.26;84.38;101829.00;10466756;28;20302;-61
2021/08/25 13:43:10;;;;;;;0.00;0.00;;;;;;;17.22;85.95;101821.44;10457939;28;20023;-63
2021/08/25 13:48:11;;;;;;;0.00;0.00;;;;;;;17.32;84.83;101800.50;10492111;28;20032;-63
2021/08/25 13:53:11;;;;;;;0.10;0.10;;;;;;;17.48;85.42;101792.28;10481291;28;20395;-62
2021/08/25 13:58:12;;;;;;;0.10;0.10;;;;;;;17.77;83.65;101777.22;10453553;28;20029;-62
2021/08/25 14:03:12;;;;;;;0.00;0.00;;;;;;;18.03;81.94;101779.50;10475110;28;20063;-63
2021/08/25 14:08:13;;;;;;;0.10;0.10;;;;;;;18.13;81.24;101758.50;10450516;28;20100;-63
2021/08/25 14:13:13;;;;;;;0.00;0.00;;;;;;;18.13;79.75;101755.00;10462972;28;20024;-62
2021/08/25 14:18:14;;;;;;;0.00;0.00;;;;;;;17.91;81.42;101754.88;10491397;28;20475;-63
2021/08/25 14:23:14;;;;;;;0.00;0.00;;;;;;;17.77;82.47;101752.97;10468700;28;20077;-62
2021/08/25 14:28:14;;;;;;;0.00;0.00;;;;;;;17.62;84.30;101745.69;10450590;28;20023;-63
2021/08/25 14:33:14;;;;;;;0.00;0.00;;;;;;;17.60;85.42;101746.94;10459705;28;20020;-62
2021/08/25 14:38:15;;;;;;;0.00;0.00;;;;;;;17.65;86.18;101729.16;10490613;28;20040;-63
2021/08/25 14:43:16;;;;;;;0.00;0.00;;;;;;;17.60;86.57;101728.06;10489938;28;20027;-63
2021/08/25 14:48:16;;;;;;;0.10;0.10;;;;;;;17.47;86.62;101720.59;10475685;28;20026;-61
2021/08/25 14:53:17;;;;;;;0.10;0.10;;;;;;;17.22;87.74;101716.44;10450289;28;20472;-63
2021/08/25 14:58:17;;;;;;;0.10;0.10;;;;;;;16.98;89.47;101705.69;10449300;28;20082;-63
2021/08/25 15:03:24;;;;;;;0.08;0.08;;;;;;;16.89;90.20;101703.25;10448624;28;20490;-62
2021/08/25 15:08:24;;;;;;;0.10;0.10;;;;;;;16.97;88.82;101681.66;10475452;28;20423;-63
2021/08/25 15:13:24;;;;;;;0.10;0.10;;;;;;;17.00;88.75;101681.31;10448338;28;20308;-62
2021/08/25 15:18:30;;;;;;;0.10;0.10;;;;;;;16.93;87.99;101674.97;10458565;28;20039;-63
2021/08/25 15:23:30;;;;;;;0.00;0.00;;;;;;;16.90;88.09;101662.72;10473697;28;20052;-60
2021/08/25 15:28:31;;;;;;;0.10;0.10;;;;;;;16.89;88.51;101652.94;10514991;28;20139;-61
2021/08/25 15:33:31;;;;;;;0.10;0.10;;;;;;;16.86;89.03;101652.47;10541517;28;20035;-62
2021/08/25 15:38:31;;;;;;;0.10;0.10;;;;;;;16.84;89.08;101633.84;10542037;28;20028;-60
2021/08/25 15:43:32;;;;;;;0.10;0.10;;;;;;;16.89;89.28;101631.44;10540611;28;20024;-63
2021/08/25 15:48:34;;;;;;;0.10;0.10;;;;;;;16.96;88.91;101604.66;10541556;28;20012;-62
2021/08/25 15:53:38;;;;;;;0.10;0.10;;;;;;;16.93;88.91;101610.41;10520907;28;20316;-62
2021/08/25 15:58:38;;;;;;;;;;;;;;;16.83;89.82;101601.72;10498898;28;20033;-60
2021/08/25 16:03:39;;;;;;;0.10;0.10;;;;;;;16.75;89.50;101583.75;10498385;28;20282;-61
2021/08/25 16:08:39;;;;;;;0.10;0.10;;;;;;;16.66;89.95;101577.59;10480415;28;20483;-61
2021/08/25 16:13:39;;;;;;;0.10;0.10;;;;;;;16.52;90.42;101573.00;10497628;28;20028;-61
2021/08/25 16:18:40;;;;;;;0.03;0.03;;;;;;;16.45;91.45;101566.69;10498110;28;20035;-61
2021/08/25 16:23:40;;;;;;;0.10;0.10;;;;;;;16.38;91.63;101550.47;10478022;28;20370;-61
2021/08/25 16:28:41;;;;;;;0.10;0.10;;;;;;;16.29;92.29;101549.69;10466116;28;20094;-61
2021/08/25 16:33:42;;;;;;;0.10;0.10;;;;;;;16.25;92.16;101551.03;10454008;28;20492;-60
2021/08/25 16:38:42;;;;;;;0.10;0.10;;;;;;;16.18;92.57;101543.88;10454551;28;20468;-61
2021/08/25 16:43:42;;;;;;;0.10;0.10;;;;;;;16.11;93.01;101550.97;10453886;28;20476;-60
2021/08/25 16:48:43;;;;;;;0.10;0.10;;;;;;;16.05;93.74;101531.84;10454230;28;20021;-60
2021/08/25 16:53:43;;;;;;;0.10;0.10;;;;;;;16.02;94.11;101515.25;10453758;28;20021;-61
2021/08/25 16:58:47;;;;;;;0.00;0.00;;;;;;;16.00;94.20;101512.75;10471222;28;20020;-61
2021/08/25 17:03:47;;;;;;;0.10;0.10;;;;;;;15.98;94.23;101516.63;10465823;28;20031;-60
2021/08/25 17:08:47;;;;;;;0.10;0.10;;;;;;;15.96;94.82;101492.63;10460068;28;20021;-61
2021/08/25 17:13:48;;;;;;;0.10;0.10;;;;;;;15.95;95.03;101492.81;10462727;28;20020;-59
2021/08/25 17:18:49;;;;;;;0.00;0.00;;;;;;;15.97;94.99;101488.94;10452926;28;20032;-61
2021/08/25 17:23:49;;;;;;;0.00;0.00;;;;;;;15.96;95.45;101478.34;10462288;28;20021;-61
2021/08/25 17:28:49;;;;;;;0.10;0.10;;;;;;;15.92;95.60;101477.88;10471731;28;20096;-62
2021/08/25 17:33:49;;;;;;;0.10;0.10;;;;;;;15.93;95.73;101467.97;10474652;22;20086;-66
2021/08/25 17:38:51;;;;;;;0.10;0.10;;;;;;;15.88;95.67;101464.97;10465484;28;20024;-66
2021/08/25 17:43:51;;;;;;;0.10;0.10;;;;;;;15.84;95.96;101468.00;10449120;28;20329;-66
2021/08/25 17:48:51;;;;;;;0.00;0.00;;;;;;;15.86;95.91;101456.28;10415243;28;20025;-66
2021/08/25 17:53:52;;;;;;;0.10;0.10;;;;;;;15.88;95.98;101456.91;10430580;28;20033;-65
2021/08/25 17:58:52;;;;;;;0.10;0.10;;;;;;;15.90;95.84;101454.88;10469169;28;20424;-66
2021/08/25 18:03:53;;;;;;;0.10;0.10;;;;;;;15.87;95.29;101444.50;10459090;28;20033;-66
2021/08/25 18:08:53;;;;;;;0.10;0.10;;;;;;;15.79;95.27;101424.72;10459039;28;20095;-65
2021/08/25 18:13:54;;;;;;;0.10;0.10;;;;;;;15.73;95.32;101430.81;10453581;28;20021;-65
2021/08/25 18:18:54;;;;;;;0.10;0.10;;;;;;;15.68;95.53;101435.91;10484803;28;20035;-65
2021/08/25 18:23:57;;;;;;;0.10;0.10;;;;;;;15.64;95.00;101450.66;10484672;28;20020;-65
2021/08/25 18:28:57;;;;;;;0.10;0.10;;;;;;;15.62;95.42;101418.63;10483470;28;20024;-66
2021/08/25 18:33:58;;;;;;;0.10;0.10;;;;;;;15.62;95.73;101421.31;10461825;28;20491;-65
2021/08/25 18:38:58;;;;;;;0.10;0.10;;;;;;;15.58;95.47;101428.03;10447507;28;20495;-65
2021/08/25 18:43:59;;;;;;;0.10;0.10;;;;;;;15.55;95.96;101424.88;10446037;28;20021;-65
2021/08/25 18:48:59;;;;;;;0.10;0.10;;;;;;;15.54;96.02;101423.22;10437656;28;20009;-65
2021/08/25 18:53:59;;;;;;;0.10;0.10;;;;;;;15.52;95.34;101422.53;10445814;28;20020;-65
2021/08/25 18:59:00;;;;;;;0.10;0.10;;;;;;;15.48;95.17;101414.00;10454816;28;20051;-65
2021/08/25 19:04:00;;;;;;;0.10;0.10;;;;;;;15.46;94.70;101413.34;10446080;28;20043;-65
2021/08/25 19:09:00;;;;;;;0.10;0.10;;;;;;;15.42;94.33;101397.75;10448465;28;20029;-65
2021/08/25 19:14:01;;;;;;;0.00;0.00;;;;;;;15.37;93.92;101392.94;10472416;28;20048;-65
2021/08/25 19:19:01;;;;;;;0.10;0.10;;;;;;;15.33;93.58;101381.72;10485732;28;20546;-65
2021/08/25 19:24:01;;;;;;;0.00;0.00;;;;;;;15.30;91.59;101374.03;10465895;28;20024;-64
2021/08/25 19:29:02;;;;;;;0.10;0.10;;;;;;;15.31;89.33;101367.63;10486329;28;20096;-65
2021/08/25 19:34:02;;;;;;;0.10;0.10;;;;;;;15.31;90.60;101378.38;10462162;28;20302;-65
2021/08/25 19:39:03;;;;;;;0.10;0.10;;;;;;;15.27;89.41;101381.56;10468078;28;20180;-65
2021/08/25 19:44:03;;;;;;;0.10;0.10;;;;;;;15.21;89.67;101383.09;10452132;28;20024;-65
2021/08/25 19:49:04;;;;;;;0.10;0.10;;;;;;;15.19;89.66;101387.00;10485625;28;20024;-65
2021/08/25 19:54:04;;;;;;;0.10;0.10;;;;;;;15.17;90.56;101384.47;10471299;28;20601;-65
2021/08/25 19:59:04;;;;;;;0.10;0.10;;;;;;;15.12;91.05;101376.94;10451532;28;20031;-65
2021/08/25 20:04:05;;;;;;;0.00;0.00;;;;;;;15.11;88.92;101377.97;10453780;28;20032;-65
2021/08/25 20:09:05;;;;;;;0.10;0.10;;;;;;;15.11;88.48;101386.03;10447532;28;20309;-65
2021/08/25 20:14:05;;;;;;;0.00;0.00;;;;;;;15.16;86.77;101382.81;10451867;28;20043;-64
2021/08/25 20:19:06;;;;;;;0.10;0.10;;;;;;;15.13;87.49;101378.63;10463355;28;20032;-64
2021/08/25 20:24:06;;;;;;;0.10;0.10;;;;;;;15.05;87.62;101380.53;10464077;28;20405;-64
2021/08/25 20:29:07;;;;;;;0.10;0.10;;;;;;;14.96;87.83;101365.50;10454073;28;20024;-64
2021/08/25 20:34:07;;;;;;;0.10;0.10;;;;;;;14.94;87.37;101368.31;10466490;28;20040;-65
2021/08/25 20:39:07;;;;;;;0.10;0.10;;;;;;;14.92;87.26;101356.94;10458610;28;20025;-65
2021/08/25 20:44:08;;;;;;;0.10;0.10;;;;;;;14.92;87.11;101360.47;10462697;28;20507;-65
2021/08/25 20:49:08;;;;;;;0.10;0.10;;;;;;;14.90;87.68;101364.34;10494129;28;20024;-65
2021/08/25 20:54:08;;;;;;;0.10;0.10;;;;;;;14.83;88.41;101357.97;10493869;28;20107;-64
2021/08/25 20:59:09;;;;;;;0.10;0.10;;;;;;;14.75;86.49;101355.31;10493823;28;20518;-65
2021/08/25 21:04:09;;;;;;;0.10;0.10;;;;;;;14.68;86.60;101356.03;10493067;28;20076;-65
2021/08/25 21:09:09;;;;;;;0.10;0.10;;;;;;;14.61;88.30;101365.78;10475774;28;20025;-64
2021/08/25 21:14:10;;;;;;;0.10;0.10;;;;;;;14.49;88.59;101362.59;10470184;28;20021;-64
2021/08/25 21:19:10;;;;;;;0.10;0.10;;;;;;;14.33;88.28;101345.72;10479668;28;20020;-65
2021/08/25 21:24:10;;;;;;;0.10;0.10;;;;;;;14.25;88.08;101349.22;10491367;28;20024;-64
2021/08/25 21:29:11;;;;;;;0.10;0.10;;;;;;;14.22;87.97;101333.50;10491599;28;20477;-64
2021/08/25 21:34:11;;;;;;;0.10;0.10;;;;;;;14.13;88.68;101329.16;10490887;28;20028;-65
2021/08/25 21:39:11;;;;;;;0.10;0.10;;;;;;;13.99;89.56;101326.19;10485414;28;20036;-64
2021/08/25 21:44:11;;;;;;;0.10;0.10;;;;;;;13.89;89.58;101322.00;10461545;28;20017;-64
2021/08/25 21:49:12;;;;;;;0.10;0.10;;;;;;;13.80;90.26;101318.50;10451371;28;20024;-65
2021/08/25 21:54:12;;;;;;;0.10;0.10;;;;;;;13.72;90.29;101319.34;10488859;28;20039;-64
2021/08/25 21:59:17;;;;;;;0.10;0.10;;;;;;;13.64;90.56;101313.13;10490520;28;20038;-65
2021/08/25 22:04:17;;;;;;;0.10;0.10;;;;;;;13.55;90.83;101323.84;10448656;28;20029;-66
2021/08/25 22:09:18;;;;;;;0.10;0.10;;;;;;;13.49;90.76;101307.63;10460661;28;20024;-64
2021/08/25 22:14:18;;;;;;;0.10;0.10;;;;;;;13.44;90.74;101313.50;10448220;28;20028;-64
2021/08/25 22:19:18;;;;;;;0.07;0.07;;;;;;;13.36;90.98;101316.97;10460286;28;20120;-64
2021/08/25 22:24:19;;;;;;;0.10;0.10;;;;;;;13.31;91.30;101313.97;10447828;28;20350;-65
2021/08/25 22:29:19;;;;;;;0.10;0.10;;;;;;;13.27;91.93;101317.97;10464952;28;20482;-65
2021/08/25 22:34:19;;;;;;;0.10;0.10;;;;;;;13.22;91.93;101316.75;10448243;28;20046;-65
2021/08/25 22:39:19;;;;;;;0.08;0.08;;;;;;;13.18;92.54;101307.38;10459879;28;20499;-65
2021/08/25 22:44:20;;;;;;;0.10;0.10;;;;;;;13.12;92.52;101293.69;10446432;28;20021;-65
2021/08/25 22:49:20;;;;;;;0.10;0.10;;;;;;;13.10;92.48;101302.88;10431558;28;20267;-65
2021/08/25 22:54:20;;;;;;;0.10;0.10;;;;;;;13.07;93.24;101292.50;10454580;28;20021;-64
2021/08/25 22:59:21;;;;;;;0.10;0.10;;;;;;;13.12;92.95;101298.19;10446598;28;20067;-64
2021/08/25 23:04:21;;;;;;;0.10;0.10;;;;;;;13.21;93.31;101291.03;10451850;28;20200;-64